Time;durP1;ratioP1;P1;durP2;ratioP2;P2;SDS_P1;SDS_P2;PMS_P1;PMS_P2;Temp;Humidity;BMP_temperature;BMP_pressure;BME280_temperature;BME280_humidity;BME280_pressure;Samples;Min_cycle;Max_cycle;Signal;HPM_P1;HPM_P2
2022/05/02 00:02:15;;;;;;;9.50;6.57;;;;;;;13.29;45.01;100374.06;4973135;28;20057;-59
2022/05/02 00:04:42;;;;;;;11.68;7.22;;;;;;;13.25;45.03;100371.69;4973281;28;20058;-59
2022/05/02 00:07:09;;;;;;;11.35;7.47;;;;;;;13.19;44.94;100372.88;4973118;28;20051;-60
2022/05/02 00:09:36;;;;;;;8.90;7.22;;;;;;;13.13;44.92;100371.44;4972847;28;20051;-55
2022/05/02 00:12:03;;;;;;;11.35;7.38;;;;;;;13.07;45.20;100365.66;4972745;28;20043;-58
2022/05/02 00:14:30;;;;;;;9.68;6.90;;;;;;;13.03;45.12;100370.28;4971823;28;20058;-59
2022/05/02 00:16:56;;;;;;;9.52;6.95;;;;;;;12.98;45.50;100373.19;4973072;28;20050;-59
2022/05/02 00:19:23;;;;;;;10.05;6.97;;;;;;;12.95;45.41;100364.59;4972858;28;20047;-59
2022/05/02 00:21:50;;;;;;;10.07;7.47;;;;;;;12.92;45.85;100367.41;4972668;28;20055;-60
2022/05/02 00:24:17;;;;;;;8.93;7.10;;;;;;;12.89;45.91;100363.16;4973101;28;20070;-62
2022/05/02 00:26:43;;;;;;;10.30;6.78;;;;;;;12.87;45.91;100362.41;4972937;28;20050;-60
2022/05/02 00:29:10;;;;;;;9.20;7.82;;;;;;;12.85;46.10;100366.91;4972758;28;20062;-60
2022/05/02 00:31:37;;;;;;;9.30;7.35;;;;;;;12.84;46.02;100357.28;4972561;28;20051;-60
2022/05/02 00:34:03;;;;;;;10.95;7.68;;;;;;;12.82;46.06;100361.81;4972332;28;20456;-60
2022/05/02 00:36:30;;;;;;;10.30;7.78;;;;;;;12.80;46.12;100356.59;4972463;28;20046;-61
2022/05/02 00:38:57;;;;;;;11.70;7.90;;;;;;;12.79;46.28;100352.28;4972686;28;20385;-59
2022/05/02 00:41:23;;;;;;;11.45;8.18;;;;;;;12.77;46.30;100346.22;4972074;28;20105;-62
2022/05/02 00:43:50;;;;;;;11.35;7.68;;;;;;;12.76;46.21;100352.44;4972501;28;20062;-61
2022/05/02 00:46:21;;;;;;;11.90;8.70;;;;;;;12.70;46.70;100343.06;4971117;28;20058;-60
2022/05/02 00:48:48;;;;;;;9.77;8.15;;;;;;;12.69;46.26;100344.00;4971025;28;20101;-58
2022/05/02 00:51:16;;;;;;;11.07;8.38;;;;;;;12.66;46.25;100338.88;4972036;28;20058;-59
2022/05/02 00:53:48;;;;;;;11.68;7.85;;;;;;;12.61;46.93;100347.09;4972072;28;20050;-60
2022/05/02 00:56:22;;;;;;;8.95;7.60;;;;;;;12.56;46.85;100338.56;4971314;28;20058;-59
2022/05/02 00:58:50;;;;;;;10.95;7.55;;;;;;;12.56;46.50;100340.34;4972356;28;20055;-60
2022/05/02 01:01:17;;;;;;;9.93;7.82;;;;;;;12.51;46.50;100345.88;4971974;28;20082;-58
2022/05/02 01:03:44;;;;;;;10.75;7.78;;;;;;;12.49;46.72;100345.13;4972243;28;20050;-60
2022/05/02 01:08:57;;;;;;;8.95;6.97;;;;;;;12.42;46.60;100336.69;4972157;28;20054;-60
2022/05/02 01:11:24;;;;;;;11.85;7.55;;;;;;;12.40;46.74;100340.38;4970697;28;20054;-57
2022/05/02 01:13:51;;;;;;;8.98;7.53;;;;;;;12.36;46.80;100340.53;4971886;28;20443;-59
2022/05/02 01:16:17;;;;;;;10.73;7.90;;;;;;;12.33;46.76;100342.47;4972330;28;20383;-59
2022/05/02 01:18:46;;;;;;;8.80;7.03;;;;;;;12.29;46.90;100338.31;4972127;28;20178;-59
2022/05/02 01:21:15;;;;;;;9.00;7.88;;;;;;;12.24;47.10;100335.91;4971784;28;20050;-60
2022/05/02 01:23:43;;;;;;;10.05;6.75;;;;;;;12.21;47.09;100329.03;4970634;28;20054;-60
2022/05/02 01:26:11;;;;;;;10.55;7.75;;;;;;;12.18;47.10;100333.63;4970526;28;20043;-61
2022/05/02 01:28:46;;;;;;;9.73;7.68;;;;;;;12.12;47.76;100329.53;4970270;28;20055;-60
2022/05/02 01:31:14;;;;;;;9.30;8.10;;;;;;;12.13;47.06;100328.59;4970344;28;20054;-59
2022/05/02 01:33:42;;;;;;;9.80;8.00;;;;;;;12.08;46.87;100328.81;4970505;28;20046;-60
2022/05/02 01:36:08;;;;;;;11.98;7.63;;;;;;;12.05;47.16;100320.19;4971543;28;20059;-61
2022/05/02 01:38:36;;;;;;;9.88;7.90;;;;;;;12.02;47.19;100326.50;4971543;28;20050;-59
2022/05/02 01:41:04;;;;;;;10.80;7.45;;;;;;;11.97;47.31;100326.72;4971383;28;20507;-59
2022/05/02 01:43:33;;;;;;;10.77;7.57;;;;;;;11.93;47.20;100327.00;4971522;28;20055;-59
2022/05/02 01:46:05;;;;;;;12.23;7.95;;;;;;;11.86;47.89;100322.03;4971665;28;20058;-55
2022/05/02 01:48:32;;;;;;;12.38;7.20;;;;;;;11.83;47.38;100313.44;4971599;28;20077;-60
2022/05/02 01:50:59;;;;;;;9.57;7.38;;;;;;;11.78;47.56;100318.13;4971195;28;20098;-62
2022/05/02 01:53:27;;;;;;;11.25;7.43;;;;;;;11.72;47.67;100311.38;4971355;28;20134;-59
2022/05/02 01:55:54;;;;;;;10.07;7.18;;;;;;;11.67;47.72;100314.25;4970265;28;20058;-55
2022/05/02 01:58:21;;;;;;;9.80;7.63;;;;;;;11.63;47.73;100307.44;4971365;28;20065;-58
2022/05/02 02:00:48;;;;;;;9.63;7.55;;;;;;;11.60;47.80;100307.59;4970007;28;20133;-55
2022/05/02 02:03:14;;;;;;;10.70;6.95;;;;;;;11.56;47.92;100312.16;4971187;28;20125;-59
2022/05/02 02:05:49;;;;;;;10.30;6.93;;;;;;;11.52;48.14;100313.28;4971011;28;20057;-61
2022/05/02 02:08:23;;;;;;;10.95;7.65;;;;;;;11.49;48.58;100310.81;4971131;28;20062;-60
2022/05/02 02:10:53;;;;;;;10.13;7.28;;;;;;;11.48;47.96;100311.75;4970657;28;20055;-61
2022/05/02 02:13:20;;;;;;;13.55;6.68;;;;;;;11.47;47.97;100307.38;4970771;28;20138;-61
2022/05/02 02:15:46;;;;;;;11.00;7.63;;;;;;;11.44;48.17;100311.03;4970797;28;20507;-59
2022/05/02 02:18:14;;;;;;;12.52;7.32;;;;;;;11.41;48.16;100310.34;4973024;28;20515;-59
2022/05/02 02:20:47;;;;;;;8.23;6.80;;;;;;;11.38;48.63;100311.34;4974485;28;20871;-60
2022/05/02 02:23:15;;;;;;;10.07;6.53;;;;;;;11.37;48.37;100309.66;4973885;28;20057;-60
2022/05/02 02:25:42;;;;;;;7.18;6.30;;;;;;;11.38;48.33;100310.50;4973506;28;20062;-60
2022/05/02 02:28:09;;;;;;;7.78;6.13;;;;;;;11.37;48.26;100316.72;4974724;28;20061;-61
2022/05/02 02:30:36;;;;;;;8.80;6.25;;;;;;;11.36;48.32;100312.38;4974616;28;20055;-63
2022/05/02 02:33:03;;;;;;;9.07;5.97;;;;;;;11.37;48.04;100314.94;4974764;28;20062;-60
2022/05/02 02:35:30;;;;;;;8.07;6.60;;;;;;;11.37;48.15;100308.81;4974736;28;20109;-58
2022/05/02 02:37:56;;;;;;;8.82;5.95;;;;;;;11.37;48.17;100306.16;4973600;28;20058;-61
2022/05/02 02:40:23;;;;;;;8.52;6.32;;;;;;;11.36;48.24;100307.09;4974346;28;20514;-58
2022/05/02 02:42:50;;;;;;;12.63;6.90;;;;;;;11.35;48.21;100303.59;4974738;28;20105;-58
2022/05/02 02:45:17;;;;;;;8.07;6.57;;;;;;;11.33;48.37;100303.69;4973392;28;20088;-60
2022/05/02 02:47:44;;;;;;;9.32;6.47;;;;;;;11.33;48.22;100303.69;4973185;28;20082;-60
2022/05/02 02:50:11;;;;;;;12.80;6.28;;;;;;;11.31;48.26;100307.31;4974251;28;20051;-59
2022/05/02 02:52:38;;;;;;;6.93;5.82;;;;;;;11.29;48.19;100298.66;4974589;28;20147;-59
2022/05/02 02:55:05;;;;;;;9.02;6.13;;;;;;;11.25;48.14;100300.56;4974397;28;20055;-61
2022/05/02 02:57:33;;;;;;;7.00;5.60;;;;;;;11.23;48.06;100297.19;4973197;28;20058;-58
2022/05/02 03:00:01;;;;;;;9.13;6.32;;;;;;;11.20;48.30;100292.06;4974058;28;20078;-58
2022/05/02 03:02:28;;;;;;;8.10;6.40;;;;;;;11.16;48.23;100285.25;4972949;28;20664;-58
2022/05/02 03:07:40;;;;;;;9.23;6.50;;;;;;;11.09;48.36;100282.06;4974375;28;20051;-57
2022/05/02 03:10:06;;;;;;;10.52;7.10;;;;;;;11.05;48.56;100283.16;4974006;28;20055;-58
2022/05/02 03:12:33;;;;;;;8.98;6.82;;;;;;;11.02;48.49;100280.66;4972990;28;20051;-59
2022/05/02 03:15:00;;;;;;;8.43;7.20;;;;;;;10.98;48.50;100274.72;4974372;28;20051;-58
2022/05/02 03:17:26;;;;;;;9.75;6.70;;;;;;;10.93;48.57;100274.09;4974238;28;20074;-59
2022/05/02 03:19:53;;;;;;;9.00;7.32;;;;;;;10.90;48.55;100274.25;4974103;28;20054;-59
2022/05/02 03:22:20;;;;;;;13.02;7.38;;;;;;;10.87;48.76;100274.41;4974111;28;20438;-60
2022/05/02 03:24:46;;;;;;;9.85;7.25;;;;;;;10.82;48.80;100267.59;4974454;28;20418;-58
2022/05/02 03:27:13;;;;;;;9.15;7.70;;;;;;;10.78;48.75;100268.69;4973759;28;20590;-59
2022/05/02 03:29:40;;;;;;;10.70;7.38;;;;;;;10.74;48.79;100269.75;4973111;28;20517;-58
2022/05/02 03:32:07;;;;;;;10.65;7.80;;;;;;;10.70;48.86;100268.19;4974005;28;20050;-58
2022/05/02 03:34:33;;;;;;;10.88;7.10;;;;;;;10.66;49.09;100266.66;4973883;28;20058;-56
2022/05/02 03:37:00;;;;;;;9.60;7.55;;;;;;;10.64;49.16;100268.47;4973889;28;20059;-60
2022/05/02 03:39:27;;;;;;;12.25;7.57;;;;;;;10.61;49.27;100263.41;4973620;28;20092;-56
2022/05/02 03:41:53;;;;;;;11.15;7.47;;;;;;;10.58;49.32;100263.53;4973160;28;20439;-59
2022/05/02 03:44:20;;;;;;;10.80;7.18;;;;;;;10.55;49.35;100262.75;4973679;28;20054;-61
2022/05/02 03:46:46;;;;;;;9.98;7.70;;;;;;;10.54;49.56;100266.31;4973744;28;20113;-58
2022/05/02 03:49:13;;;;;;;13.43;7.47;;;;;;;10.51;49.69;100266.44;4973324;28;20145;-58
2022/05/02 03:51:40;;;;;;;9.38;7.28;;;;;;;10.50;49.61;100267.38;4973313;28;20061;-60
2022/05/02 03:54:07;;;;;;;11.65;7.68;;;;;;;10.50;49.57;100269.19;4973311;28;20054;-59
2022/05/02 03:56:34;;;;;;;11.70;7.25;;;;;;;10.48;49.63;100266.63;4973085;28;20091;-60
2022/05/02 03:59:01;;;;;;;9.65;6.90;;;;;;;10.46;49.79;100265.81;4971946;28;20051;-59
2022/05/02 04:01:27;;;;;;;9.13;6.90;;;;;;;10.45;49.87;100269.38;4973209;28;20073;-59
2022/05/02 04:03:54;;;;;;;10.32;7.45;;;;;;;10.43;49.50;100271.19;4973125;28;20384;-59
2022/05/02 04:06:21;;;;;;;13.30;7.75;;;;;;;10.42;49.82;100269.50;4973152;28;20058;-60
2022/05/02 04:08:48;;;;;;;12.15;7.13;;;;;;;10.41;49.95;100265.16;4973234;28;20565;-59
2022/05/02 04:11:14;;;;;;;8.95;6.68;;;;;;;10.40;49.90;100272.19;4972881;28;20054;-60
2022/05/02 04:13:41;;;;;;;8.50;7.00;;;;;;;10.40;49.81;100261.66;4973349;28;20058;-55
2022/05/02 04:16:07;;;;;;;10.02;6.80;;;;;;;10.39;50.01;100267.03;4973365;28;20062;-60
2022/05/02 04:18:34;;;;;;;11.57;6.82;;;;;;;10.40;49.89;100274.81;4972982;28;20050;-58
2022/05/02 04:21:01;;;;;;;8.75;6.03;;;;;;;10.38;50.11;100267.94;4972493;28;20110;-60
2022/05/02 04:23:27;;;;;;;8.38;6.63;;;;;;;10.37;50.02;100269.72;4972903;28;20055;-60
2022/05/02 04:25:55;;;;;;;10.23;6.28;;;;;;;10.36;49.98;100262.75;4972800;28;20539;-59
2022/05/02 04:28:21;;;;;;;8.95;6.65;;;;;;;10.36;50.12;100264.53;4973005;28;20057;-57
2022/05/02 04:30:48;;;;;;;8.13;6.55;;;;;;;10.35;50.08;100265.47;4972779;28;20125;-60
2022/05/02 04:33:15;;;;;;;9.43;6.93;;;;;;;10.34;50.39;100269.88;4972894;28;20058;-60
2022/05/02 04:35:41;;;;;;;10.07;7.15;;;;;;;10.33;50.18;100272.56;4972684;28;20098;-60
2022/05/02 04:38:08;;;;;;;8.63;6.30;;;;;;;10.34;50.21;100261.97;4972491;28;20051;-61
2022/05/02 04:40:34;;;;;;;7.95;6.47;;;;;;;10.34;50.47;100267.25;4971608;28;20062;-61
2022/05/02 04:43:01;;;;;;;9.30;6.50;;;;;;;10.33;50.54;100264.69;4972514;28;20077;-57
2022/05/02 04:45:28;;;;;;;9.80;6.97;;;;;;;10.34;50.63;100261.97;4972661;28;20065;-56
2022/05/02 04:47:55;;;;;;;12.90;6.57;;;;;;;10.35;51.05;100266.31;4972847;28;20741;-57
2022/05/02 04:50:21;;;;;;;7.72;6.13;;;;;;;10.37;50.64;100259.22;4972438;28;20054;-58
2022/05/02 04:52:48;;;;;;;11.77;6.55;;;;;;;10.40;50.85;100258.19;4972568;28;20407;-56
2022/05/02 04:55:14;;;;;;;9.18;6.57;;;;;;;10.43;50.83;100271.19;4972490;28;20061;-59
2022/05/02 04:57:41;;;;;;;8.77;6.47;;;;;;;10.46;50.95;100273.72;4972570;28;20097;-60
2022/05/02 05:00:08;;;;;;;10.68;7.45;;;;;;;10.49;50.98;100270.09;4972154;28;20051;-58
2022/05/02 05:02:35;;;;;;;12.93;8.15;;;;;;;10.53;51.27;100275.13;4971022;28;20058;-60
2022/05/02 05:05:02;;;;;;;9.90;7.47;;;;;;;10.55;51.10;100275.91;4971895;28;20487;-57
2022/05/02 05:07:29;;;;;;;10.98;8.13;;;;;;;10.59;51.17;100281.03;4972039;28;20054;-57
2022/05/02 05:09:55;;;;;;;13.38;8.15;;;;;;;10.61;50.92;100279.19;4972197;28;20081;-59
2022/05/02 05:12:34;;;;;;;9.73;7.55;;;;;;;10.61;51.80;100279.19;4972186;28;20090;-60
2022/05/02 05:18:10;;;;;;;11.75;8.25;;;;;;;10.69;51.55;100283.13;4972375;28;20063;-60
2022/05/02 05:20:48;;;;;;;13.00;8.32;;;;;;;10.70;51.64;100273.47;4970345;28;20058;-58
2022/05/02 05:23:34;;;;;;;12.50;8.27;;;;;;;10.72;51.71;100279.50;4970511;28;20051;-58
2022/05/02 05:26:26;;;;;;;11.40;8.50;;;;;;;10.75;51.67;100281.13;4971559;28;20058;-58
2022/05/02 05:29:25;;;;;;;21.08;7.05;;;;;;;10.78;51.43;100278.34;4971994;28;20102;-58
2022/05/02 05:32:04;;;;;;;12.38;7.32;;;;;;;10.82;51.71;100280.75;4971876;28;20158;-55
2022/05/02 05:35:09;;;;;;;13.18;7.82;;;;;;;10.85;51.65;100282.38;4970602;28;20434;-58
2022/05/02 05:37:59;;;;;;;9.32;7.10;;;;;;;10.89;51.25;100280.44;4939008;28;20062;-60
2022/05/02 05:40:34;;;;;;;11.38;7.72;;;;;;;10.90;51.39;100279.50;4971506;28;20050;-57
2022/05/02 05:43:21;;;;;;;11.05;8.40;;;;;;;10.91;51.82;100278.56;4971887;28;20047;-60
2022/05/02 05:46:13;;;;;;;13.85;7.85;;;;;;;10.91;51.81;100279.44;4971415;28;20054;-61
2022/05/02 05:49:41;;;;;;;12.25;7.85;;;;;;;10.95;51.67;100277.50;4971449;28;20481;-62
2022/05/02 05:52:13;;;;;;;9.90;7.60;;;;;;;11.02;50.99;100281.53;4936044;28;20054;-63
2022/05/02 05:54:58;;;;;;;13.45;7.78;;;;;;;11.02;51.74;100284.16;4970297;28;20573;-60
2022/05/02 05:57:32;;;;;;;13.85;7.55;;;;;;;11.05;51.47;100283.16;4970588;28;20074;-61
2022/05/02 06:00:11;;;;;;;10.52;7.78;;;;;;;11.08;51.87;100288.28;4970704;28;20153;-61
2022/05/02 06:03:00;;;;;;;10.57;7.18;;;;;;;11.08;51.87;100283.88;4971018;28;20518;-61
2022/05/02 06:05:27;;;;;;;10.18;6.78;;;;;;;11.19;51.15;100290.38;4971070;28;20044;-61
2022/05/02 06:07:55;;;;;;;8.45;6.85;;;;;;;11.23;51.50;100291.06;4971391;28;20558;-60
2022/05/02 06:10:25;;;;;;;11.45;7.07;;;;;;;11.25;51.53;100284.78;4971161;28;20047;-58
2022/05/02 06:12:54;;;;;;;11.13;7.10;;;;;;;11.30;51.32;100282.78;4970034;28;20061;-60
2022/05/02 06:18:29;;;;;;;8.32;6.40;;;;;;;11.41;51.16;100283.97;4970989;28;20055;-61
2022/05/02 06:21:06;;;;;;;10.63;6.05;;;;;;;11.45;51.60;100275.00;4971014;28;20426;-59
2022/05/02 06:23:40;;;;;;;9.32;6.72;;;;;;;11.51;51.35;100279.94;4971218;28;20086;-60
2022/05/02 06:26:09;;;;;;;11.00;6.30;;;;;;;11.58;51.37;100276.03;4969644;28;20078;-61
2022/05/02 06:28:46;;;;;;;8.10;6.18;;;;;;;11.63;51.70;100277.59;4971248;28;20055;-60
2022/05/02 06:31:29;;;;;;;10.43;6.65;;;;;;;11.69;51.37;100279.88;4970757;28;20075;-60
2022/05/02 06:34:02;;;;;;;9.70;6.18;;;;;;;11.78;51.46;100275.91;4970986;28;20089;-60
2022/05/02 06:36:29;;;;;;;7.63;6.07;;;;;;;11.86;51.03;100285.09;4969570;28;20069;-61
2022/05/02 06:39:05;;;;;;;7.50;6.30;;;;;;;11.91;51.35;100286.63;4969645;28;20066;-61
2022/05/02 06:41:48;;;;;;;9.20;6.22;;;;;;;11.97;51.32;100279.25;4970983;28;20054;-61
2022/05/02 06:44:28;;;;;;;9.38;7.13;;;;;;;12.04;51.30;100276.28;4969994;28;20047;-60
2022/05/02 06:47:22;;;;;;;13.02;6.60;;;;;;;12.09;51.44;100272.50;4969736;28;20046;-62
2022/05/02 06:49:54;;;;;;;10.45;6.45;;;;;;;12.19;51.12;100274.63;4969386;28;20046;-62
2022/05/02 06:52:30;;;;;;;9.65;6.38;;;;;;;12.25;51.33;100269.00;4970855;28;20063;-61
2022/05/02 06:55:09;;;;;;;12.55;6.60;;;;;;;12.31;51.35;100273.94;4969790;28;20055;-61
2022/05/02 06:58:14;;;;;;;8.55;6.30;;;;;;;12.41;51.12;100273.41;4970845;28;20685;-62
2022/05/02 07:01:05;;;;;;;9.40;6.15;;;;;;;12.50;50.84;100276.41;4952281;28;20058;-60
2022/05/02 07:03:38;;;;;;;12.80;6.90;;;;;;;12.58;51.06;100280.38;4971535;28;20058;-62
2022/05/02 07:06:16;;;;;;;8.90;6.65;;;;;;;12.64;50.78;100275.59;4974322;28;20042;-60
2022/05/02 07:09:00;;;;;;;8.02;6.63;;;;;;;12.70;50.78;100278.81;4974738;28;20058;-60
2022/05/02 07:11:39;;;;;;;9.30;7.47;;;;;;;12.77;50.76;100269.59;4974318;28;20051;-61
2022/05/02 07:14:16;;;;;;;8.82;6.95;;;;;;;12.85;51.04;100272.66;4974480;28;20061;-62
2022/05/02 07:16:49;;;;;;;8.32;7.13;;;;;;;12.90;51.29;100278.50;4972771;28;20050;-61
2022/05/02 07:19:21;;;;;;;;;;;;;;;12.97;50.43;100273.72;4974078;28;20476;-61
2022/05/02 07:21:57;;;;;;;8.27;6.18;;;;;;;13.07;50.47;100274.03;4973160;28;20101;-60
2022/05/02 07:24:32;;;;;;;15.40;7.57;;;;;;;13.14;50.47;100271.88;4973282;28;20083;-60
2022/05/02 07:27:25;;;;;;;12.38;7.18;;;;;;;13.18;50.54;100273.38;4972493;28;20077;-61
2022/05/02 07:29:57;;;;;;;9.70;6.50;;;;;;;13.26;50.28;100276.44;4973195;28;20086;-61
2022/05/02 07:32:24;;;;;;;9.93;6.60;;;;;;;13.34;50.25;100283.88;4973881;28;20084;-61
2022/05/02 07:34:52;;;;;;;8.32;6.57;;;;;;;13.40;50.42;100278.25;4972453;28;20046;-63
2022/05/02 07:37:23;;;;;;;10.07;6.53;;;;;;;13.49;50.49;100278.66;4973231;28;20141;-62
2022/05/02 07:39:52;;;;;;;8.32;5.85;;;;;;;13.55;50.22;100270.34;4973600;28;20093;-61
2022/05/02 07:42:20;;;;;;;9.07;5.80;;;;;;;13.64;50.04;100268.94;4971878;28;20411;-66
2022/05/02 07:44:52;;;;;;;10.55;5.90;;;;;;;13.71;49.80;100274.69;4971140;28;20483;-62
2022/05/02 07:47:21;;;;;;;8.10;5.45;;;;;;;13.80;49.73;100272.31;4971965;28;20507;-63
2022/05/02 07:49:55;;;;;;;5.85;4.72;;;;;;;13.89;49.52;100277.97;4971524;28;20714;-63
2022/05/02 07:52:27;;;;;;;6.65;4.97;;;;;;;13.98;49.34;100279.22;4972615;28;20062;-62
2022/05/02 07:54:58;;;;;;;6.00;4.78;;;;;;;14.07;48.98;100274.19;4973317;28;20046;-63
2022/05/02 07:57:28;;;;;;;8.30;4.25;;;;;;;14.15;48.73;100271.03;4971148;28;20047;-62
2022/05/02 07:59:57;;;;;;;7.95;4.72;;;;;;;14.24;48.70;100277.53;4972926;28;20066;-63
2022/05/02 08:02:24;;;;;;;6.40;4.97;;;;;;;14.31;48.90;100273.56;4972569;28;20066;-62
2022/05/02 08:04:53;;;;;;;8.85;5.18;;;;;;;14.40;48.57;100265.97;4973361;28;20587;-62
2022/05/02 08:07:38;;;;;;;5.70;4.53;;;;;;;14.46;48.60;100268.19;4973356;28;20532;-62
2022/05/02 08:10:33;;;;;;;5.53;4.07;;;;;;;14.57;48.56;100270.16;4971978;28;20046;-63
2022/05/02 08:13:27;;;;;;;6.38;4.00;;;;;;;14.69;48.59;100264.03;4971947;28;20051;-64
2022/05/02 08:16:05;;;;;;;3.88;3.35;;;;;;;14.82;48.13;100268.56;4973004;28;20109;-62
2022/05/02 08:18:50;;;;;;;4.18;3.63;;;;;;;14.90;47.59;100266.25;4972861;28;20509;-62
2022/05/02 08:21:22;;;;;;;4.78;3.42;;;;;;;15.06;47.92;100270.53;4971768;28;20057;-61
2022/05/02 08:27:16;;;;;;;;;;;;;;;15.29;47.61;100265.44;4913380;29;20094;-62
2022/05/02 08:30:13;;;;;;;7.05;3.95;;;;;;;15.41;47.01;100263.75;4912450;29;19982;-62
2022/05/02 08:32:45;;;;;;;5.32;3.95;;;;;;;15.53;46.60;100254.06;4962482;28;20054;-62
2022/05/02 08:35:16;;;;;;;4.03;3.63;;;;;;;15.62;47.42;100258.72;4972686;28;20055;-64
2022/05/02 08:37:46;;;;;;;7.18;3.80;;;;;;;15.72;46.92;100265.09;4972395;28;20054;-62
2022/05/02 08:40:33;;;;;;;5.72;4.03;;;;;;;15.82;47.46;100256.50;4972368;28;20050;-63
2022/05/02 08:43:37;;;;;;;9.65;4.13;;;;;;;15.97;46.74;100263.41;4972593;28;20073;-64
2022/05/02 08:46:22;;;;;;;5.55;4.00;;;;;;;16.14;46.45;100264.81;4971732;28;20055;-63
2022/05/02 08:51:58;;;;;;;3.75;3.22;;;;;;;16.41;46.39;100269.06;4972429;28;20058;-62
2022/05/02 08:54:40;;;;;;;4.63;3.95;;;;;;;16.53;46.25;100267.31;4971988;28;20097;-62
2022/05/02 08:57:09;;;;;;;6.55;4.20;;;;;;;16.66;45.86;100258.44;4972343;28;20118;-61
2022/05/02 08:59:39;;;;;;;7.20;4.13;;;;;;;16.79;45.90;100259.19;4972033;28;20121;-61
2022/05/02 09:02:24;;;;;;;5.47;4.40;;;;;;;16.90;45.65;100260.22;4970914;28;20047;-62
2022/05/02 09:05:09;;;;;;;6.85;4.55;;;;;;;17.02;45.41;100259.28;4971838;28;20191;-62
2022/05/02 09:08:13;;;;;;;5.88;4.15;;;;;;;17.15;44.72;100251.22;4970684;28;20082;-62
2022/05/02 09:10:45;;;;;;;;;;;;;;;17.30;45.66;100243.88;4972541;28;20063;-62
2022/05/02 09:13:36;;;;;;;8.65;4.07;;;;;;;17.43;44.64;100249.06;4971743;28;19926;-61
2022/05/02 09:16:41;;;;;;;8.88;4.30;;;;;;;17.52;44.60;100242.19;4971969;28;20097;-63
2022/05/02 09:19:42;;;;;;;6.60;4.10;;;;;;;17.62;44.65;100246.78;4971703;28;20518;-61
2022/05/02 09:22:45;;;;;;;6.95;4.25;;;;;;;17.71;44.25;100246.06;4970808;28;20047;-61
2022/05/02 09:25:25;;;;;;;7.05;4.47;;;;;;;17.87;44.32;100252.84;4971876;28;20126;-62
2022/05/02 09:28:11;;;;;;;7.47;4.60;;;;;;;17.97;43.92;100251.13;4971250;28;20051;-62
2022/05/02 09:31:12;;;;;;;10.38;4.68;;;;;;;18.04;43.95;100238.16;4971794;28;20061;-62
2022/05/02 09:34:03;;;;;;;8.15;4.55;;;;;;;18.15;44.09;100238.16;4971689;28;20051;-62
2022/05/02 09:36:35;;;;;;;6.72;4.30;;;;;;;18.29;43.81;100242.38;4971673;28;20062;-63
2022/05/02 09:39:04;;;;;;;4.95;4.22;;;;;;;18.40;44.02;100237.97;4971844;28;20062;-61
2022/05/02 09:41:52;;;;;;;6.75;4.60;;;;;;;18.48;43.37;100238.19;4971676;28;20089;-63
2022/05/02 09:50:56;;;;;;;6.93;4.72;;;;;;;18.81;42.46;100224.81;4971097;28;20062;-64
2022/05/02 09:53:38;;;;;;;9.80;4.90;;;;;;;18.93;42.70;100225.59;4971455;28;20050;-62
2022/05/02 09:56:38;;;;;;;6.65;4.60;;;;;;;18.98;42.39;100220.69;4971349;28;20050;-62
2022/05/02 09:59:10;;;;;;;8.82;4.85;;;;;;;19.08;42.07;100220.78;4971297;28;20051;-62
2022/05/02 10:01:46;;;;;;;7.77;4.47;;;;;;;19.15;42.26;100216.63;4970071;28;20055;-62
2022/05/02 10:04:18;;;;;;;7.38;4.88;;;;;;;19.23;41.79;100214.16;4970051;28;20049;-62
2022/05/02 10:06:50;;;;;;;8.95;5.05;;;;;;;19.30;42.41;100217.13;4971393;28;20080;-63
2022/05/02 10:09:32;;;;;;;8.93;5.25;;;;;;;19.37;42.11;100209.44;4969783;28;20074;-63
2022/05/02 10:12:34;;;;;;;7.80;5.07;;;;;;;19.48;41.77;100211.16;4971660;28;20486;-62
2022/05/02 10:15:33;;;;;;;8.38;5.13;;;;;;;19.60;41.93;100210.09;4971081;28;20051;-61
2022/05/02 10:18:11;;;;;;;9.73;5.13;;;;;;;19.74;41.71;100208.00;4969977;28;20062;-63
2022/05/02 10:21:08;;;;;;;24.63;5.47;;;;;;;19.83;41.63;100207.19;4970892;28;20058;-63
2022/05/02 10:23:44;;;;;;;10.95;5.07;;;;;;;19.97;41.90;100208.63;4968569;28;20042;-62
2022/05/02 10:26:31;;;;;;;8.93;4.47;;;;;;;20.02;40.77;100206.41;4969553;28;20673;-62
2022/05/02 10:29:16;;;;;;;7.15;5.00;;;;;;;20.06;40.16;100201.63;4971606;28;20709;-63
2022/05/02 10:31:49;;;;;;;6.30;4.85;;;;;;;20.10;39.82;100200.38;4971378;28;20059;-62
2022/05/02 10:34:19;;;;;;;5.10;4.60;;;;;;;20.06;40.05;100196.28;4969731;28;20058;-62
2022/05/02 10:36:47;;;;;;;5.95;5.22;;;;;;;20.03;40.49;100194.75;4970922;28;20437;-61
2022/05/02 10:39:47;;;;;;;6.32;5.05;;;;;;;20.01;40.59;100191.38;4971916;28;20055;-63
2022/05/02 10:42:18;;;;;;;5.57;4.50;;;;;;;20.13;40.41;100192.09;4974808;28;20063;-62
2022/05/02 10:45:17;;;;;;;5.82;4.82;;;;;;;20.24;40.33;100190.25;4973348;28;20058;-63
2022/05/02 10:47:54;;;;;;;6.18;4.18;;;;;;;20.29;39.53;100182.66;4942075;28;20065;-63
2022/05/02 10:50:33;;;;;;;6.40;5.13;;;;;;;20.28;39.82;100189.00;4973616;28;20399;-62
2022/05/02 10:53:44;;;;;;;5.80;5.00;;;;;;;20.29;39.67;100188.00;4974832;28;20059;-63
2022/05/02 10:56:43;;;;;;;6.60;4.95;;;;;;;20.49;41.32;100185.34;4941136;28;20643;-62
2022/05/02 10:59:15;;;;;;;8.73;4.95;;;;;;;20.91;41.58;100192.19;4962520;28;20062;-63
2022/05/02 11:01:57;;;;;;;8.23;4.72;;;;;;;21.45;40.91;100183.53;4974232;28;20502;-63
2022/05/02 11:04:42;;;;;;;30.63;6.63;;;;;;;22.13;41.87;100184.16;4974530;28;20158;-63
2022/05/02 11:07:27;;;;;;;52.30;6.55;;;;;;;22.96;40.81;100170.56;4974367;28;20051;-62
2022/05/02 11:10:01;;;;;;;8.18;5.00;;;;;;;23.74;39.00;100166.03;4973095;28;20051;-64
2022/05/02 11:12:31;;;;;;;6.00;4.13;;;;;;;24.44;38.95;100171.19;4974295;28;20086;-63
2022/05/02 11:15:21;;;;;;;5.28;4.15;;;;;;;25.00;37.92;100175.88;4972980;28;20078;-63
2022/05/02 11:18:08;;;;;;;6.20;4.20;;;;;;;25.53;36.03;100164.53;4974223;28;20065;-64
2022/05/02 11:20:47;;;;;;;6.40;4.20;;;;;;;25.95;34.74;100164.34;4974112;28;20043;-62
2022/05/02 11:23:44;;;;;;;5.65;4.07;;;;;;;26.25;35.38;100161.78;4974154;28;20392;-62
2022/05/02 11:26:33;;;;;;;5.63;4.13;;;;;;;26.60;34.40;100154.06;4973771;28;20066;-63
2022/05/02 11:29:10;;;;;;;7.15;3.67;;;;;;;27.01;34.65;100154.69;4974008;28;20051;-63
2022/05/02 11:31:48;;;;;;;8.50;4.28;;;;;;;27.44;34.31;100152.13;4972902;28;20061;-63
2022/05/02 11:34:19;;;;;;;5.05;3.80;;;;;;;27.90;33.83;100147.47;4973989;28;20519;-60
2022/05/02 11:36:52;;;;;;;7.43;4.30;;;;;;;28.32;32.64;100144.97;4973959;28;20062;-62
2022/05/02 11:39:24;;;;;;;5.20;3.72;;;;;;;28.78;32.31;100142.78;4973904;28;20051;-61
2022/05/02 11:41:56;;;;;;;5.18;3.53;;;;;;;29.19;31.50;100138.44;4972468;28;20050;-60
2022/05/02 11:44:32;;;;;;;5.93;3.45;;;;;;;29.58;30.86;100135.28;4972640;28;20142;-61
2022/05/02 11:47:06;;;;;;;6.45;3.83;;;;;;;29.93;30.11;100135.13;4973500;28;20047;-61
2022/05/02 11:49:51;;;;;;;5.18;3.65;;;;;;;30.24;30.07;100135.63;4972895;28;20506;-61
2022/05/02 11:52:32;;;;;;;4.47;3.85;;;;;;;30.53;30.54;100128.91;4972456;28;20400;-62
2022/05/02 11:55:00;;;;;;;5.50;3.60;;;;;;;30.83;29.56;100129.53;4973286;28;20058;-61
2022/05/02 11:57:44;;;;;;;4.05;3.65;;;;;;;31.00;29.48;100121.72;4972068;28;20503;-61
2022/05/02 12:00:15;;;;;;;4.82;3.78;;;;;;;31.14;28.17;100117.94;4972271;28;20075;-61
2022/05/02 12:02:56;;;;;;;6.77;3.60;;;;;;;31.25;27.44;100121.84;4973502;28;20755;-60
2022/05/02 12:05:31;;;;;;;5.85;3.88;;;;;;;31.20;27.10;100117.03;4973746;28;20059;-61
2022/05/02 12:08:02;;;;;;;4.38;3.75;;;;;;;30.99;26.50;100120.91;4972968;28;20054;-60
2022/05/02 12:10:45;;;;;;;3.95;3.50;;;;;;;30.66;27.67;100110.91;4971788;28;20062;-60
2022/05/02 12:13:14;;;;;;;10.23;4.43;;;;;;;30.49;27.12;100116.78;4973683;28;20408;-60
2022/05/02 12:16:00;;;;;;;14.95;4.22;;;;;;;30.26;28.32;100115.38;4973208;28;20065;-61
2022/05/02 12:18:46;;;;;;;6.35;4.20;;;;;;;30.12;28.06;100116.38;4971834;28;20066;-61
2022/05/02 12:21:36;;;;;;;5.38;4.25;;;;;;;30.09;27.73;100116.78;4972863;28;20141;-62
2022/05/02 12:24:05;;;;;;;5.07;3.97;;;;;;;30.22;28.79;100114.09;4973081;28;20054;-61